sensor_id;sensor_type;location;lat;lon;timestamp;pressure;altitude;pressure_sealevel;temperature;humidity
48644;BME280;34928;37.302;-121.984;2023-02-15T00:08:27;100805.0;;;24.68;18.73
48644;BME280;34928;37.302;-121.984;2023-02-15T00:18:33;100803.0;;;24.64;18.73
48644;BME280;34928;37.302;-121.984;2023-02-15T00:28:37;100799.0;;;24.66;18.66
48644;BME280;34928;37.302;-121.984;2023-02-15T00:38:42;100791.0;;;24.64;18.63
48644;BME280;34928;37.302;-121.984;2023-02-15T00:48:48;100801.0;;;24.86;18.60
48644;BME280;34928;37.302;-121.984;2023-02-15T00:58:52;100809.0;;;24.70;18.67
48644;BME280;34928;37.302;-121.984;2023-02-15T01:08:57;100810.0;;;24.40;18.74
48644;BME280;34928;37.302;-121.984;2023-02-15T01:19:02;100805.0;;;24.38;18.74
48644;BME280;34928;37.302;-121.984;2023-02-15T01:29:07;100817.0;;;24.46;18.87
48644;BME280;34928;37.302;-121.984;2023-02-15T01:39:12;100827.0;;;24.56;18.99
48644;BME280;34928;37.302;-121.984;2023-02-15T01:49:20;100833.0;;;25.23;18.95
48644;BME280;34928;37.302;-121.984;2023-02-15T01:59:27;100845.0;;;25.45;18.77
48644;BME280;34928;37.302;-121.984;2023-02-15T02:09:32;100844.0;;;25.55;18.80
48644;BME280;34928;37.302;-121.984;2023-02-15T02:40:41;100896.0;;;26.23;18.61
48644;BME280;34928;37.302;-121.984;2023-02-15T02:50:52;100905.0;;;26.07;18.80
48644;BME280;34928;37.302;-121.984;2023-02-15T03:00:59;100928.0;;;26.39;18.70
48644;BME280;34928;37.302;-121.984;2023-02-15T03:11:08;100943.0;;;26.38;18.64
48644;BME280;34928;37.302;-121.984;2023-02-15T03:21:13;100958.0;;;26.59;18.45
48644;BME280;34928;37.302;-121.984;2023-02-15T03:41:58;101007.0;;;26.68;18.56
48644;BME280;34928;37.302;-121.984;2023-02-15T03:52:09;101030.0;;;26.13;18.59
48644;BME280;34928;37.302;-121.984;2023-02-15T04:02:20;101044.0;;;26.25;18.54
48644;BME280;34928;37.302;-121.984;2023-02-15T04:12:27;101062.0;;;26.07;18.35
48644;BME280;34928;37.302;-121.984;2023-02-15T04:22:32;101069.0;;;26.05;18.57
48644;BME280;34928;37.302;-121.984;2023-02-15T04:32:38;101084.0;;;26.15;18.85
48644;BME280;34928;37.302;-121.984;2023-02-15T04:42:49;101095.0;;;26.23;18.50
48644;BME280;34928;37.302;-121.984;2023-02-15T04:52:57;101107.0;;;26.28;18.87
48644;BME280;34928;37.302;-121.984;2023-02-15T05:03:02;101125.0;;;26.27;19.44
48644;BME280;34928;37.302;-121.984;2023-02-15T05:13:07;101121.0;;;25.87;20.99
48644;BME280;34928;37.302;-121.984;2023-02-15T05:23:12;101141.0;;;25.78;19.76
48644;BME280;34928;37.302;-121.984;2023-02-15T05:33:18;101159.0;;;26.14;19.83
48644;BME280;34928;37.302;-121.984;2023-02-15T05:43:23;101166.0;;;26.63;19.15
48644;BME280;34928;37.302;-121.984;2023-02-15T05:53:28;101182.0;;;26.44;19.28
48644;BME280;34928;37.302;-121.984;2023-02-15T06:03:32;101198.0;;;26.76;19.38
48644;BME280;34928;37.302;-121.984;2023-02-15T06:13:42;101210.0;;;26.29;19.25
48644;BME280;34928;37.302;-121.984;2023-02-15T06:23:47;101215.0;;;27.12;20.51
48644;BME280;34928;37.302;-121.984;2023-02-15T06:33:52;101230.0;;;26.90;20.05
48644;BME280;34928;37.302;-121.984;2023-02-15T06:43:57;101233.0;;;26.41;19.82
48644;BME280;34928;37.302;-121.984;2023-02-15T06:54:02;101254.0;;;26.75;19.55
48644;BME280;34928;37.302;-121.984;2023-02-15T07:04:07;101263.0;;;26.28;19.42
48644;BME280;34928;37.302;-121.984;2023-02-15T07:14:12;101269.0;;;26.22;19.47
48644;BME280;34928;37.302;-121.984;2023-02-15T07:24:17;101281.0;;;25.65;19.61
48644;BME280;34928;37.302;-121.984;2023-02-15T07:34:22;101291.0;;;25.64;19.62
48644;BME280;34928;37.302;-121.984;2023-02-15T07:44:28;101305.0;;;25.50;19.73
48644;BME280;34928;37.302;-121.984;2023-02-15T07:54:33;101322.0;;;25.29;19.77
48644;BME280;34928;37.302;-121.984;2023-02-15T08:04:55;101340.0;;;25.21;19.45
48644;BME280;34928;37.302;-121.984;2023-02-15T08:15:02;101350.0;;;25.05;19.46
48644;BME280;34928;37.302;-121.984;2023-02-15T08:25:13;101358.0;;;24.91;19.14
48644;BME280;34928;37.302;-121.984;2023-02-15T08:35:18;101367.0;;;25.59;18.99
48644;BME280;34928;37.302;-121.984;2023-02-15T08:45:22;101387.0;;;26.08;18.84
48644;BME280;34928;37.302;-121.984;2023-02-15T08:55:28;101403.0;;;26.46;18.59
48644;BME280;34928;37.302;-121.984;2023-02-15T09:05:32;101414.0;;;26.26;18.17
48644;BME280;34928;37.302;-121.984;2023-02-15T09:26:08;101437.0;;;26.65;18.40
48644;BME280;34928;37.302;-121.984;2023-02-15T09:36:18;101447.0;;;26.16;18.04
48644;BME280;34928;37.302;-121.984;2023-02-15T09:46:33;101444.0;;;26.55;17.93
48644;BME280;34928;37.302;-121.984;2023-02-15T09:56:48;101446.0;;;26.23;17.61
48644;BME280;34928;37.302;-121.984;2023-02-15T10:07:02;101457.0;;;26.88;17.77
48644;BME280;34928;37.302;-121.984;2023-02-15T10:17:22;101459.0;;;26.68;17.31
48644;BME280;34928;37.302;-121.984;2023-02-15T10:27:34;101460.0;;;26.47;17.42
48644;BME280;34928;37.302;-121.984;2023-02-15T10:48:18;101454.0;;;26.24;17.64
48644;BME280;34928;37.302;-121.984;2023-02-15T10:58:41;101455.0;;;26.26;17.69
48644;BME280;34928;37.302;-121.984;2023-02-15T11:08:49;101452.0;;;26.04;17.71
48644;BME280;34928;37.302;-121.984;2023-02-15T11:18:59;101456.0;;;25.89;17.77
48644;BME280;34928;37.302;-121.984;2023-02-15T11:29:11;101460.0;;;25.60;17.80
48644;BME280;34928;37.302;-121.984;2023-02-15T11:39:18;101466.0;;;25.34;17.89
48644;BME280;34928;37.302;-121.984;2023-02-15T11:49:25;101475.0;;;25.05;17.93
48644;BME280;34928;37.302;-121.984;2023-02-15T11:59:34;101486.0;;;25.12;17.94
48644;BME280;34928;37.302;-121.984;2023-02-15T12:09:50;101501.0;;;25.13;17.99
48644;BME280;34928;37.302;-121.984;2023-02-15T12:19:59;101511.0;;;25.00;17.99
48644;BME280;34928;37.302;-121.984;2023-02-15T12:30:07;101511.0;;;24.59;18.01
48644;BME280;34928;37.302;-121.984;2023-02-15T12:40:24;101535.0;;;24.58;18.10
48644;BME280;34928;37.302;-121.984;2023-02-15T12:50:27;101548.0;;;24.45;18.09
48644;BME280;34928;37.302;-121.984;2023-02-15T13:00:33;101568.0;;;24.41;18.06
48644;BME280;34928;37.302;-121.984;2023-02-15T13:10:42;101582.0;;;24.21;18.10
48644;BME280;34928;37.302;-121.984;2023-02-15T13:20:49;101594.0;;;24.31;18.05
48644;BME280;34928;37.302;-121.984;2023-02-15T13:30:52;101609.0;;;24.16;18.14
48644;BME280;34928;37.302;-121.984;2023-02-15T13:41:03;101606.0;;;23.72;17.81
48644;BME280;34928;37.302;-121.984;2023-02-15T13:51:16;101618.0;;;24.48;17.61
48644;BME280;34928;37.302;-121.984;2023-02-15T14:01:28;101634.0;;;24.65;17.46
48644;BME280;34928;37.302;-121.984;2023-02-15T14:11:41;101638.0;;;25.17;17.43
48644;BME280;34928;37.302;-121.984;2023-02-15T14:21:51;101647.0;;;24.72;17.37
48644;BME280;34928;37.302;-121.984;2023-02-15T14:32:02;101662.0;;;25.19;17.25
48644;BME280;34928;37.302;-121.984;2023-02-15T14:42:11;101666.0;;;25.13;17.36
48644;BME280;34928;37.302;-121.984;2023-02-15T14:52:17;101669.0;;;25.17;17.45
48644;BME280;34928;37.302;-121.984;2023-02-15T15:02:25;101686.0;;;25.24;17.19
48644;BME280;34928;37.302;-121.984;2023-02-15T15:12:41;101695.0;;;25.38;17.17
48644;BME280;34928;37.302;-121.984;2023-02-15T15:22:47;101700.0;;;26.17;17.42
48644;BME280;34928;37.302;-121.984;2023-02-15T15:32:57;101714.0;;;26.24;17.52
48644;BME280;34928;37.302;-121.984;2023-02-15T15:53:24;101729.0;;;26.25;17.32
48644;BME280;34928;37.302;-121.984;2023-02-15T16:03:28;101740.0;;;26.84;17.32
48644;BME280;34928;37.302;-121.984;2023-02-15T16:13:33;101753.0;;;26.14;17.20
48644;BME280;34928;37.302;-121.984;2023-02-15T16:23:57;101760.0;;;25.92;16.75
48644;BME280;34928;37.302;-121.984;2023-02-15T16:34:14;101758.0;;;26.17;17.18
48644;BME280;34928;37.302;-121.984;2023-02-15T16:44:22;101773.0;;;25.96;17.24
48644;BME280;34928;37.302;-121.984;2023-02-15T16:54:29;101786.0;;;25.82;17.20
48644;BME280;34928;37.302;-121.984;2023-02-15T17:04:38;101790.0;;;26.09;17.09
48644;BME280;34928;37.302;-121.984;2023-02-15T17:14:42;101805.0;;;25.78;16.99
48644;BME280;34928;37.302;-121.984;2023-02-15T17:24:57;101803.0;;;25.57;17.00
48644;BME280;34928;37.302;-121.984;2023-02-15T17:35:14;101808.0;;;25.45;17.00
48644;BME280;34928;37.302;-121.984;2023-02-15T17:45:26;101812.0;;;25.38;17.01
48644;BME280;34928;37.302;-121.984;2023-02-15T17:55:33;101811.0;;;25.30;16.96
48644;BME280;34928;37.302;-121.984;2023-02-15T18:05:37;101819.0;;;25.25;16.92
48644;BME280;34928;37.302;-121.984;2023-02-15T18:15:43;101810.0;;;25.19;16.92
48644;BME280;34928;37.302;-121.984;2023-02-15T18:25:47;101805.0;;;25.63;16.96
48644;BME280;34928;37.302;-121.984;2023-02-15T18:35:52;101794.0;;;25.46;16.84
48644;BME280;34928;37.302;-121.984;2023-02-15T18:45:57;101828.0;;;25.18;16.89
48644;BME280;34928;37.302;-121.984;2023-02-15T18:56:02;101821.0;;;25.16;16.83
48644;BME280;34928;37.302;-121.984;2023-02-15T19:06:09;101830.0;;;25.05;16.87
48644;BME280;34928;37.302;-121.984;2023-02-15T19:16:27;101839.0;;;25.11;16.80
48644;BME280;34928;37.302;-121.984;2023-02-15T19:26:36;101819.0;;;25.51;16.91
48644;BME280;34928;37.302;-121.984;2023-02-15T19:36:43;101810.0;;;25.06;16.94
48644;BME280;34928;37.302;-121.984;2023-02-15T19:46:47;101800.0;;;25.51;17.01
48644;BME280;34928;37.302;-121.984;2023-02-15T19:56:52;101791.0;;;25.28;16.94
48644;BME280;34928;37.302;-121.984;2023-02-15T20:06:59;101779.0;;;25.44;17.08
48644;BME280;34928;37.302;-121.984;2023-02-15T20:17:08;101772.0;;;25.43;17.00
48644;BME280;34928;37.302;-121.984;2023-02-15T20:27:15;101758.0;;;25.02;16.83
48644;BME280;34928;37.302;-121.984;2023-02-15T20:37:25;101748.0;;;25.47;16.88
48644;BME280;34928;37.302;-121.984;2023-02-15T20:47:32;101748.0;;;25.30;16.93
48644;BME280;34928;37.302;-121.984;2023-02-15T20:57:37;101721.0;;;25.25;16.99
48644;BME280;34928;37.302;-121.984;2023-02-15T21:07:42;101717.0;;;25.30;16.97
48644;BME280;34928;37.302;-121.984;2023-02-15T21:17:47;101700.0;;;25.27;16.99
48644;BME280;34928;37.302;-121.984;2023-02-15T21:27:53;101690.0;;;25.01;17.14
48644;BME280;34928;37.302;-121.984;2023-02-15T21:37:57;101683.0;;;25.33;17.03
48644;BME280;34928;37.302;-121.984;2023-02-15T21:48:03;101687.0;;;25.36;17.21
48644;BME280;34928;37.302;-121.984;2023-02-15T21:58:16;101678.0;;;25.59;17.28
48644;BME280;34928;37.302;-121.984;2023-02-15T22:08:23;101677.0;;;25.38;17.35
48644;BME280;34928;37.302;-121.984;2023-02-15T22:18:31;101675.0;;;25.33;17.31
48644;BME280;34928;37.302;-121.984;2023-02-15T22:28:39;101667.0;;;25.39;17.38
48644;BME280;34928;37.302;-121.984;2023-02-15T22:38:42;101680.0;;;25.12;17.47
48644;BME280;34928;37.302;-121.984;2023-02-15T22:48:48;101677.0;;;25.43;17.54
48644;BME280;34928;37.302;-121.984;2023-02-15T22:58:53;101678.0;;;25.70;17.58
48644;BME280;34928;37.302;-121.984;2023-02-15T23:09:03;101668.0;;;25.18;17.60
48644;BME280;34928;37.302;-121.984;2023-02-15T23:19:10;101677.0;;;25.25;17.71
48644;BME280;34928;37.302;-121.984;2023-02-15T23:29:20;101684.0;;;25.26;17.82
48644;BME280;34928;37.302;-121.984;2023-02-15T23:39:28;101684.0;;;25.55;17.76
48644;BME280;34928;37.302;-121.984;2023-02-15T23:49:32;101681.0;;;25.60;17.70
48644;BME280;34928;37.302;-121.984;2023-02-15T23:59:40;101680.0;;;25.62;17.78
